Time;durP1;ratioP1;P1;durP2;ratioP2;P2;SDS_P1;SDS_P2;PMS_P1;PMS_P2;Temp;Humidity;BMP_temperature;BMP_pressure;BME280_temperature;BME280_humidity;BME280_pressure;Samples;Min_cycle;Max_cycle;Signal;HPM_P1;HPM_P2
2021/09/02 00:01:18;;;;;;;70.68;36.72;;;13.00;99.90;;;;;;5034460;23;20106;-81
2021/09/02 00:03:47;;;;;;;71.00;37.33;;;13.00;99.90;;;;;;5010566;28;20085;-81
2021/09/02 00:06:14;;;;;;;69.55;36.60;;;13.00;99.90;;;;;;5017560;28;20070;-81
2021/09/02 00:08:40;;;;;;;72.30;36.60;;;12.90;99.90;;;;;;5015406;28;20050;-80
2021/09/02 00:11:07;;;;;;;76.13;36.92;;;13.00;99.90;;;;;;5010823;28;20081;-81
2021/09/02 00:13:34;;;;;;;67.88;36.67;;;12.90;99.90;;;;;;5009987;28;20161;-81
2021/09/02 00:16:01;;;;;;;72.32;38.63;;;12.90;99.90;;;;;;5008157;28;20085;-81
2021/09/02 00:18:28;;;;;;;75.85;41.10;;;12.90;99.90;;;;;;5009204;28;20105;-81
2021/09/02 00:20:56;;;;;;;72.32;39.58;;;12.90;99.90;;;;;;5010140;28;20077;-81
2021/09/02 00:23:23;;;;;;;76.80;38.70;;;12.80;99.90;;;;;;5010259;28;20077;-81
2021/09/02 00:25:50;;;;;;;69.97;38.40;;;12.80;99.90;;;;;;5010054;28;20086;-80
2021/09/02 00:28:17;;;;;;;64.57;36.15;;;12.80;99.90;;;;;;5009416;28;20054;-80
2021/09/02 00:30:44;;;;;;;63.45;34.75;;;12.80;99.90;;;;;;5008551;28;20089;-82
2021/09/02 00:33:16;;;;;;;65.47;33.72;;;12.70;99.90;;;;;;5018280;28;20057;-80
2021/09/02 00:35:43;;;;;;;71.68;36.35;;;12.70;99.90;;;;;;5015995;28;20078;-81
2021/09/02 00:38:11;;;;;;;71.68;35.38;;;12.60;99.90;;;;;;5009333;28;20259;-81
2021/09/02 00:40:39;;;;;;;68.03;35.47;;;12.60;99.90;;;;;;5015263;28;20050;-81
2021/09/02 00:43:06;;;;;;;64.75;35.67;;;12.60;99.90;;;;;;5012921;28;20082;-81
2021/09/02 00:45:33;;;;;;;68.88;36.00;;;12.60;99.90;;;;;;5011831;28;20093;-80
2021/09/02 00:48:00;;;;;;;66.65;34.88;;;12.60;99.90;;;;;;5010031;28;20069;-80
2021/09/02 00:50:29;;;;;;;69.07;34.83;;;12.70;99.90;;;;;;5006792;28;20209;-80
2021/09/02 00:52:56;;;;;;;66.68;35.63;;;12.70;99.90;;;;;;5006831;28;20134;-80
2021/09/02 00:55:25;;;;;;;66.78;33.00;;;12.70;99.90;;;;;;5004302;28;20086;-80
2021/09/02 00:57:52;;;;;;;71.22;35.90;;;12.70;99.90;;;;;;5008687;28;20575;-81
2021/09/02 01:00:19;;;;;;;63.78;33.17;;;12.70;99.90;;;;;;5007106;28;20089;-81
2021/09/02 01:02:47;;;;;;;61.95;32.42;;;12.70;99.90;;;;;;5001970;28;20129;-81
2021/09/02 01:05:16;;;;;;;69.25;34.90;;;12.70;99.90;;;;;;5002371;28;20513;-80
2021/09/02 01:07:43;;;;;;;66.40;36.00;;;12.70;99.90;;;;;;5006594;28;20086;-80
2021/09/02 01:10:11;;;;;;;72.15;36.40;;;12.70;99.90;;;;;;5006913;28;20050;-81
2021/09/02 01:12:42;;;;;;;74.05;35.92;;;12.80;99.90;;;;;;5006438;28;20073;-80
2021/09/02 01:15:11;;;;;;;71.63;36.22;;;12.80;99.90;;;;;;5007205;28;20059;-80
2021/09/02 01:17:39;;;;;;;66.75;34.35;;;12.70;99.90;;;;;;5007088;28;20200;-82
2021/09/02 01:20:07;;;;;;;64.90;34.13;;;12.70;99.90;;;;;;5005139;28;20046;-81
2021/09/02 01:22:34;;;;;;;68.60;34.80;;;12.80;99.90;;;;;;5005600;28;20062;-82
2021/09/02 01:25:05;;;;;;;64.93;35.53;;;12.80;99.90;;;;;;5005190;28;20112;-81
2021/09/02 01:27:32;;;;;;;62.10;34.42;;;12.80;99.90;;;;;;5004166;28;20054;-82
2021/09/02 01:30:00;;;;;;;64.32;32.78;;;12.80;99.90;;;;;;5004292;28;20546;-80
2021/09/02 01:32:28;;;;;;;64.93;34.58;;;12.80;99.90;;;;;;5003993;28;20118;-81
2021/09/02 01:34:56;;;;;;;64.20;33.92;;;12.80;99.90;;;;;;5003288;28;20141;-81
2021/09/02 01:37:23;;;;;;;68.95;33.88;;;12.90;99.90;;;;;;5002959;28;20133;-82
2021/09/02 01:39:50;;;;;;;73.97;36.22;;;12.90;99.90;;;;;;5006407;28;20085;-81
2021/09/02 01:42:19;;;;;;;67.20;34.72;;;12.90;99.90;;;;;;5008387;28;20475;-82
2021/09/02 01:44:46;;;;;;;62.70;34.20;;;13.00;99.90;;;;;;5007247;28;20078;-82
2021/09/02 01:47:23;;;;;;;62.10;34.30;;;13.00;99.90;;;;;;5008601;28;20054;-81
2021/09/02 01:49:50;;;;;;;71.03;35.03;;;13.10;99.90;;;;;;5008844;28;20078;-82
2021/09/02 01:52:17;;;;;;;68.47;34.65;;;13.10;99.90;;;;;;5007644;28;20106;-82
2021/09/02 01:54:44;;;;;;;64.55;34.15;;;13.20;99.90;;;;;;5006588;28;20094;-82
2021/09/02 01:57:11;;;;;;;66.68;34.70;;;13.30;99.90;;;;;;5008754;28;20057;-82
2021/09/02 01:59:39;;;;;;;67.63;34.78;;;13.30;99.90;;;;;;5005882;28;20074;-81
2021/09/02 02:02:06;;;;;;;61.72;33.00;;;13.40;99.90;;;;;;5006210;28;20073;-81
2021/09/02 02:04:33;;;;;;;66.03;35.25;;;13.40;99.90;;;;;;5007596;28;20050;-80
2021/09/02 02:07:01;;;;;;;70.97;34.78;;;13.40;99.90;;;;;;5007909;28;20055;-81
2021/09/02 02:09:28;;;;;;;68.18;35.17;;;13.40;99.90;;;;;;5007839;28;20046;-81
2021/09/02 02:11:55;;;;;;;66.68;34.65;;;13.50;99.90;;;;;;5007216;28;20137;-82
2021/09/02 02:14:22;;;;;;;70.63;36.15;;;13.40;99.90;;;;;;5008004;28;20096;-82
2021/09/02 02:16:50;;;;;;;71.95;34.72;;;13.50;99.90;;;;;;5006770;28;20073;-82
2021/09/02 02:19:17;;;;;;;71.65;36.63;;;13.50;99.90;;;;;;5004271;28;20077;-82
2021/09/02 02:21:44;;;;;;;65.25;34.30;;;13.50;99.90;;;;;;5004694;28;20075;-79
2021/09/02 02:24:11;;;;;;;66.85;34.05;;;13.60;99.90;;;;;;5002583;28;20051;-79
2021/09/02 02:26:38;;;;;;;60.75;33.80;;;13.70;99.90;;;;;;5008288;28;20110;-80
2021/09/02 02:29:05;;;;;;;58.17;33.33;;;13.70;99.90;;;;;;5004822;28;20430;-81
2021/09/02 02:31:32;;;;;;;61.47;33.72;;;13.70;99.90;;;;;;5004420;28;20081;-81
2021/09/02 02:34:00;;;;;;;65.07;34.55;;;13.70;99.90;;;;;;5003063;28;20126;-80
2021/09/02 02:36:27;;;;;;;61.58;34.17;;;13.70;99.90;;;;;;5002983;28;20118;-81
2021/09/02 02:38:54;;;;;;;63.20;34.42;;;13.70;99.90;;;;;;5002649;28;20050;-80
2021/09/02 02:41:21;;;;;;;59.88;32.67;;;13.60;99.90;;;;;;5002910;28;20101;-80
2021/09/02 02:43:48;;;;;;;63.65;33.63;;;13.60;99.90;;;;;;5004227;28;20110;-80
2021/09/02 02:46:14;;;;;;;60.95;31.65;;;13.60;99.90;;;;;;5004499;28;20046;-81
2021/09/02 02:48:41;;;;;;;63.00;34.17;;;13.60;99.90;;;;;;5004808;28;20050;-81
2021/09/02 02:51:10;;;;;;;59.22;32.15;;;13.60;99.90;;;;;;5005486;28;20101;-80
2021/09/02 02:53:37;;;;;;;63.58;33.53;;;13.60;99.90;;;;;;5012429;28;20070;-80
2021/09/02 02:56:04;;;;;;;62.75;32.38;;;13.70;99.90;;;;;;5007016;28;20050;-80
2021/09/02 02:58:31;;;;;;;62.50;33.40;;;13.70;99.90;;;;;;5003334;28;20808;-80
2021/09/02 03:00:58;;;;;;;60.40;31.38;;;13.60;99.90;;;;;;5001762;28;20180;-81
2021/09/02 03:03:25;;;;;;;58.42;32.13;;;13.60;99.90;;;;;;5001850;28;20084;-80
2021/09/02 03:05:52;;;;;;;59.17;31.05;;;13.60;99.90;;;;;;5000042;28;20137;-80
2021/09/02 03:08:20;;;;;;;61.67;30.73;;;13.60;99.90;;;;;;5001314;28;20101;-80
2021/09/02 03:10:47;;;;;;;58.30;30.52;;;13.50;99.90;;;;;;5005687;28;20082;-81
2021/09/02 03:13:14;;;;;;;62.97;31.00;;;13.50;99.90;;;;;;5006955;28;20046;-81
2021/09/02 03:15:41;;;;;;;59.28;31.88;;;13.40;99.90;;;;;;5002586;28;20514;-80
2021/09/02 03:18:08;;;;;;;59.13;31.73;;;13.40;99.90;;;;;;5006263;28;20140;-81
2021/09/02 03:20:35;;;;;;;63.25;32.22;;;13.40;99.90;;;;;;5005525;28;20055;-80
2021/09/02 03:23:04;;;;;;;59.72;32.17;;;13.50;99.90;;;;;;5005720;28;20110;-79
2021/09/02 03:25:33;;;;;;;55.42;30.27;;;13.50;99.90;;;;;;5004594;28;20050;-81
2021/09/02 03:28:00;;;;;;;52.83;30.20;;;13.60;99.90;;;;;;5004255;28;20470;-81
2021/09/02 03:30:26;;;;;;;55.90;30.98;;;13.60;99.90;;;;;;5003865;28;20077;-81
2021/09/02 03:32:53;;;;;;;58.47;30.63;;;13.70;99.90;;;;;;5002722;28;20050;-80
2021/09/02 03:35:20;;;;;;;54.17;29.27;;;13.70;99.90;;;;;;5002506;28;20485;-81
2021/09/02 03:37:47;;;;;;;56.22;30.02;;;13.70;99.90;;;;;;5002888;28;20137;-80
2021/09/02 03:40:14;;;;;;;49.72;29.05;;;13.70;99.90;;;;;;5002205;28;20114;-81
2021/09/02 03:42:43;;;;;;;56.67;31.08;;;13.70;99.90;;;;;;5001666;28;20620;-80
2021/09/02 03:45:10;;;;;;;51.20;28.45;;;13.70;99.90;;;;;;5001817;28;20054;-79
2021/09/02 03:47:37;;;;;;;52.33;30.40;;;13.60;99.90;;;;;;5001717;28;20138;-80
2021/09/02 03:50:06;;;;;;;52.35;30.15;;;13.50;99.90;;;;;;5001609;28;20078;-80
2021/09/02 03:52:33;;;;;;;56.28;29.83;;;13.50;99.90;;;;;;5000779;28;20080;-78
2021/09/02 03:54:59;;;;;;;59.38;30.08;;;13.50;99.90;;;;;;5000478;28;20133;-81
2021/09/02 03:57:26;;;;;;;61.65;32.28;;;13.40;99.90;;;;;;5000997;28;20061;-80
2021/09/02 03:59:54;;;;;;;61.75;31.92;;;13.30;99.90;;;;;;5000727;28;20129;-79
2021/09/02 04:02:21;;;;;;;62.00;31.08;;;13.20;99.90;;;;;;5000393;28;20092;-80
2021/09/02 04:04:48;;;;;;;62.33;30.95;;;13.10;99.90;;;;;;4998974;28;20518;-80
2021/09/02 04:07:15;;;;;;;71.18;33.33;;;13.10;99.90;;;;;;5003461;28;20054;-81
2021/09/02 04:09:42;;;;;;;67.88;32.15;;;13.00;99.90;;;;;;5007784;28;20109;-81
2021/09/02 04:12:09;;;;;;;66.90;32.67;;;13.00;99.90;;;;;;5008403;28;20080;-82
2021/09/02 04:14:36;;;;;;;75.47;34.38;;;13.00;99.90;;;;;;5007943;28;20077;-82
2021/09/02 04:17:04;;;;;;;71.90;33.55;;;12.90;99.90;;;;;;5005743;28;20078;-83
2021/09/02 04:19:31;;;;;;;62.03;31.70;;;12.90;99.90;;;;;;5007314;28;20084;-80
2021/09/02 04:21:58;;;;;;;66.45;32.70;;;12.90;99.90;;;;;;5008213;28;20081;-80
2021/09/02 04:24:26;;;;;;;63.85;31.20;;;12.90;99.90;;;;;;5005125;28;20114;-81
2021/09/02 04:26:53;;;;;;;63.03;29.90;;;12.90;99.90;;;;;;5006524;28;20114;-81
2021/09/02 04:29:19;;;;;;;66.43;31.45;;;12.90;99.90;;;;;;5001694;28;20545;-79
2021/09/02 04:31:47;;;;;;;62.50;31.52;;;12.90;99.90;;;;;;5000912;28;20098;-80
2021/09/02 04:34:15;;;;;;;68.43;31.55;;;12.90;99.90;;;;;;5002231;28;20042;-80
2021/09/02 04:36:43;;;;;;;64.43;30.60;;;12.90;99.90;;;;;;5002030;28;20119;-81
2021/09/02 04:39:10;;;;;;;64.22;31.73;;;12.80;99.90;;;;;;4999199;28;20137;-83
2021/09/02 04:41:37;;;;;;;59.13;29.05;;;12.80;99.90;;;;;;4997556;28;20050;-80
2021/09/02 04:44:04;;;;;;;58.00;30.77;;;12.80;99.90;;;;;;5000217;28;20046;-80
2021/09/02 04:46:31;;;;;;;55.88;29.73;;;12.70;99.90;;;;;;5001940;28;20141;-81
2021/09/02 04:48:58;;;;;;;55.38;29.00;;;12.70;99.90;;;;;;5003007;28;20142;-83
2021/09/02 04:51:30;;;;;;;60.45;31.08;;;12.70;99.90;;;;;;5003140;28;20117;-82
2021/09/02 04:53:57;;;;;;;61.83;28.85;;;12.70;99.90;;;;;;5003682;28;20121;-81
2021/09/02 04:56:38;;;;;;;60.45;29.90;;;12.70;99.90;;;;;;5005392;28;20114;-82
2021/09/02 05:02:29;;;;;;;59.58;30.65;;;12.70;99.90;;;;;;4972512;28;20081;-82
2021/09/02 05:05:04;;;;;;;56.88;30.00;;;12.70;99.90;;;;;;5003812;28;20085;-82
2021/09/02 05:07:35;;;;;;;56.60;29.73;;;12.70;99.90;;;;;;5002697;28;20110;-81
2021/09/02 05:10:07;;;;;;;57.95;30.70;;;12.70;99.90;;;;;;5002238;28;20081;-82
2021/09/02 05:12:34;;;;;;;52.90;29.05;;;12.70;99.90;;;;;;5007870;28;20042;-82
2021/09/02 05:15:02;;;;;;;55.63;29.45;;;12.70;99.90;;;;;;5015435;28;20042;-81
2021/09/02 05:17:30;;;;;;;55.67;29.20;;;12.70;99.90;;;;;;5014566;28;20054;-81
2021/09/02 05:19:57;;;;;;;50.03;28.52;;;12.70;99.90;;;;;;5005238;28;20050;-83
2021/09/02 05:22:24;;;;;;;52.10;28.98;;;12.60;99.90;;;;;;5016220;28;20057;-82
2021/09/02 05:24:52;;;;;;;50.55;26.83;;;12.70;99.90;;;;;;5013259;28;20081;-81
2021/09/02 05:27:20;;;;;;;51.80;28.13;;;12.70;99.90;;;;;;5008811;28;20050;-83
2021/09/02 05:29:46;;;;;;;54.65;26.60;;;12.70;99.90;;;;;;5001855;28;20094;-82
2021/09/02 05:32:13;;;;;;;47.83;25.75;;;12.70;99.90;;;;;;5001689;28;20070;-83
2021/09/02 05:34:40;;;;;;;47.20;25.90;;;12.70;99.90;;;;;;5000998;28;20053;-82
2021/09/02 05:37:07;;;;;;;48.72;25.45;;;12.70;99.90;;;;;;5001493;28;20054;-83
2021/09/02 05:39:34;;;;;;;45.60;23.92;;;12.60;99.90;;;;;;5014879;28;20039;-81
2021/09/02 05:42:02;;;;;;;43.50;24.38;;;12.60;99.90;;;;;;5014397;28;20263;-81
2021/09/02 05:44:30;;;;;;;42.65;24.23;;;12.60;99.90;;;;;;5000638;28;20110;-83
2021/09/02 05:46:57;;;;;;;42.70;22.98;;;12.70;99.90;;;;;;5000292;28;20533;-82
2021/09/02 05:49:24;;;;;;;45.50;24.23;;;12.70;99.90;;;;;;5001040;28;20074;-83
2021/09/02 05:51:53;;;;;;;43.90;23.70;;;12.80;99.90;;;;;;5001365;28;20129;-81
2021/09/02 05:54:24;;;;;;;47.08;23.73;;;12.80;99.90;;;;;;5001755;28;20096;-81
2021/09/02 05:56:54;;;;;;;46.33;25.45;;;12.90;99.90;;;;;;5002560;28;20515;-82
2021/09/02 05:59:22;;;;;;;42.60;23.80;;;13.10;99.90;;;;;;5003678;28;20108;-82
2021/09/02 06:04:17;;;;;;;45.72;26.25;;;13.30;99.90;;;;;;5013888;28;20054;-81
2021/09/02 06:06:44;;;;;;;45.20;25.23;;;13.50;99.90;;;;;;5015272;28;20510;-81
2021/09/02 06:09:11;;;;;;;40.80;23.77;;;13.70;99.90;;;;;;5014615;28;20424;-80
2021/09/02 06:11:38;;;;;;;41.38;23.48;;;14.00;99.90;;;;;;5016601;28;20137;-80
2021/09/02 06:14:05;;;;;;;41.55;25.20;;;14.20;99.90;;;;;;5018147;28;20133;-79
2021/09/02 06:16:33;;;;;;;43.50;24.35;;;14.40;99.90;;;;;;5018558;28;20158;-81
2021/09/02 06:19:00;;;;;;;43.88;23.35;;;14.50;99.90;;;;;;5017922;28;20153;-82
2021/09/02 06:21:27;;;;;;;52.05;25.58;;;14.60;99.90;;;;;;5018718;28;20109;-82
2021/09/02 06:23:54;;;;;;;45.83;24.98;;;14.70;99.90;;;;;;5019078;28;20140;-80
2021/09/02 06:26:20;;;;;;;46.65;24.63;;;14.60;99.90;;;;;;5020030;28;20113;-80
2021/09/02 06:28:47;;;;;;;44.80;24.48;;;14.60;99.90;;;;;;5017037;28;20093;-82
2021/09/02 06:31:14;;;;;;;42.72;24.65;;;14.60;99.90;;;;;;5017041;28;20110;-81
2021/09/02 06:33:42;;;;;;;36.25;24.00;;;14.80;99.90;;;;;;5017826;28;20408;-81
2021/09/02 06:36:09;;;;;;;33.45;23.83;;;14.90;99.90;;;;;;5017254;28;20132;-81
2021/09/02 06:38:36;;;;;;;32.75;22.60;;;15.00;99.90;;;;;;5017820;28;20118;-82
2021/09/02 06:41:03;;;;;;;33.88;22.45;;;15.30;99.90;;;;;;5018240;28;20054;-81
2021/09/02 06:43:30;;;;;;;31.27;21.45;;;15.70;99.90;;;;;;5017539;28;20108;-82
2021/09/02 06:45:57;;;;;;;31.70;20.15;;;16.40;99.90;;;;;;5017285;28;20105;-81
2021/09/02 06:48:24;;;;;;;34.85;21.27;;;17.10;99.90;;;;;;5016969;28;20061;-82
2021/09/02 06:50:52;;;;;;;32.72;20.27;;;17.90;99.90;;;;;;5016495;28;20109;-82
2021/09/02 06:53:19;;;;;;;27.88;19.45;;;18.50;99.90;;;;;;5016738;28;20115;-82
2021/09/02 06:55:46;;;;;;;29.02;20.80;;;19.40;99.90;;;;;;5016626;28;20133;-82
2021/09/02 06:58:13;;;;;;;34.38;22.10;;;20.00;99.90;;;;;;5016462;28;20133;-83
2021/09/02 07:00:40;;;;;;;31.40;21.80;;;20.30;99.90;;;;;;5016503;28;20050;-82
2021/09/02 07:03:07;;;;;;;28.95;22.20;;;20.50;99.90;;;;;;4977942;28;1106258;-81
2021/09/02 07:05:34;;;;;;;32.67;22.25;;;20.70;99.90;;;;;;5016878;28;20244;-82
2021/09/02 07:08:02;;;;;;;29.45;21.73;;;20.80;99.90;;;;;;5017089;28;20081;-82
2021/09/02 07:10:29;;;;;;;28.00;20.77;;;21.20;99.90;;;;;;5016832;28;20073;-82
2021/09/02 07:12:55;;;;;;;29.42;22.00;;;21.40;99.90;;;;;;5016860;28;20066;-82
2021/09/02 07:15:22;;;;;;;29.50;22.17;;;21.70;99.90;;;;;;5015646;28;20084;-82
2021/09/02 07:17:49;;;;;;;29.00;21.10;;;22.00;99.90;;;;;;5016142;28;20045;-83
2021/09/02 07:20:16;;;;;;;29.95;22.35;;;22.10;99.90;;;;;;5014849;28;20080;-83
2021/09/02 07:22:43;;;;;;;27.88;22.38;;;21.80;99.90;;;;;;5015478;28;20114;-81
2021/09/02 07:25:12;;;;;;;31.48;21.60;;;21.90;99.90;;;;;;5015635;28;20136;-81
2021/09/02 07:27:39;;;;;;;30.67;21.65;;;22.10;99.90;;;;;;5016105;28;20061;-81
2021/09/02 07:30:07;;;;;;;28.40;21.02;;;22.30;99.90;;;;;;5015459;28;20132;-81
2021/09/02 07:32:34;;;;;;;29.10;21.05;;;22.50;99.90;;;;;;5015761;28;20137;-80
2021/09/02 07:35:01;;;;;;;28.45;21.42;;;22.70;99.90;;;;;;5015380;28;20077;-80
2021/09/02 07:37:28;;;;;;;26.73;20.55;;;22.70;99.90;;;;;;5015065;28;20129;-80
2021/09/02 07:39:54;;;;;;;28.27;20.77;;;22.30;99.90;;;;;;5015232;28;20093;-80
2021/09/02 07:42:23;;;;;;;28.75;21.58;;;22.40;99.90;;;;;;5018596;28;20081;-80
2021/09/02 07:44:50;;;;;;;28.55;20.52;;;22.60;99.90;;;;;;5017728;28;20049;-81
2021/09/02 07:47:16;;;;;;;27.00;20.25;;;22.60;99.90;;;;;;5018562;28;20136;-80
2021/09/02 07:49:43;;;;;;;25.50;19.10;;;22.60;99.90;;;;;;5017491;28;20124;-81
2021/09/02 07:52:10;;;;;;;28.75;21.55;;;22.70;99.90;;;;;;5018636;28;20422;-81
2021/09/02 07:54:37;;;;;;;29.88;20.73;;;23.00;99.90;;;;;;5019127;28;20054;-81
2021/09/02 07:57:05;;;;;;;27.52;20.92;;;23.00;99.90;;;;;;5021022;28;20208;-81
2021/09/02 07:59:33;;;;;;;27.20;21.02;;;23.20;99.90;;;;;;5015612;28;20541;-80
2021/09/02 08:02:00;;;;;;;27.40;20.95;;;23.50;99.90;;;;;;5014999;28;20081;-80
2021/09/02 08:04:27;;;;;;;26.95;18.13;;;23.60;99.90;;;;;;5014281;28;20105;-79
2021/09/02 08:06:53;;;;;;;26.65;19.00;;;23.50;99.90;;;;;;5009408;28;20084;-79
2021/09/02 08:09:29;;;;;;;21.88;17.65;;;23.50;99.90;;;;;;5002643;28;20049;-82
2021/09/02 08:11:59;;;;;;;25.85;19.50;;;23.50;99.90;;;;;;5012405;28;20091;-80
2021/09/02 08:14:27;;;;;;;25.17;17.20;;;23.20;99.90;;;;;;5008616;28;20042;-80
2021/09/02 08:16:56;;;;;;;27.77;18.27;;;23.20;99.90;;;;;;5011229;28;20077;-80
2021/09/02 08:19:23;;;;;;;26.50;19.60;;;23.50;99.90;;;;;;5002316;28;20513;-81
2021/09/02 08:21:50;;;;;;;28.33;19.25;;;23.40;99.90;;;;;;5015304;28;20431;-80
2021/09/02 08:24:16;;;;;;;26.05;18.73;;;23.40;99.90;;;;;;5018005;28;20109;-80
2021/09/02 08:26:44;;;;;;;25.17;17.58;;;23.50;99.90;;;;;;5015469;28;20104;-80
2021/09/02 08:29:10;;;;;;;25.65;19.67;;;23.80;99.90;;;;;;5018867;28;20060;-80
2021/09/02 08:31:37;;;;;;;29.50;19.90;;;23.90;99.90;;;;;;5019227;28;20073;-79
2021/09/02 08:34:06;;;;;;;27.67;19.58;;;23.90;99.90;;;;;;5018102;28;20052;-78
2021/09/02 08:36:33;;;;;;;25.50;20.50;;;23.90;99.90;;;;;;5018842;28;20439;-80
2021/09/02 08:38:59;;;;;;;25.98;19.67;;;23.50;99.90;;;;;;5020680;28;20054;-81
2021/09/02 08:41:27;;;;;;;29.27;19.17;;;23.40;99.90;;;;;;5019166;28;20074;-81
2021/09/02 08:43:54;;;;;;;26.50;19.15;;;23.60;99.90;;;;;;5019582;28;20057;-82
2021/09/02 08:46:21;;;;;;;27.98;19.77;;;23.50;99.90;;;;;;5019159;28;20056;-82
2021/09/02 08:48:49;;;;;;;27.23;19.58;;;23.60;99.90;;;;;;5020268;28;20136;-83
2021/09/02 08:51:18;;;;;;;28.65;20.00;;;23.60;99.90;;;;;;5020083;28;20467;-83
2021/09/02 08:53:45;;;;;;;27.90;19.20;;;23.40;99.90;;;;;;5019503;28;20082;-81
2021/09/02 08:56:12;;;;;;;25.48;19.17;;;23.10;99.90;;;;;;5020125;28;20080;-83
2021/09/02 08:58:39;;;;;;;27.88;19.52;;;23.20;99.90;;;;;;5020919;28;20562;-83
2021/09/02 09:01:09;;;;;;;27.88;20.17;;;23.00;99.90;;;;;;5021600;28;20490;-83
2021/09/02 09:03:38;;;;;;;30.23;20.30;;;22.60;99.90;;;;;;5025128;28;20057;-81
2021/09/02 09:06:07;;;;;;;27.77;19.65;;;22.00;99.90;;;;;;5026726;28;20052;-84
2021/09/02 09:08:38;;;;;;;27.23;19.88;;;21.80;99.90;;;;;;5022370;28;20060;-83
2021/09/02 09:11:15;;;;;;;25.67;19.85;;;22.10;99.90;;;;;;5019551;28;20053;-83
2021/09/02 09:13:43;;;;;;;29.92;20.02;;;22.50;99.90;;;;;;5020837;28;20584;-82
2021/09/02 09:16:09;;;;;;;29.55;19.98;;;22.60;99.90;;;;;;5019138;28;20110;-82
2021/09/02 09:18:43;;;;;;;34.40;19.75;;;22.80;99.90;;;;;;5018850;28;20100;-82
2021/09/02 09:21:12;;;;;;;28.63;19.70;;;22.60;99.90;;;;;;5017305;28;20054;-82
2021/09/02 09:23:57;;;;;;;27.35;20.67;;;22.40;99.90;;;;;;5016491;28;20060;-81
2021/09/02 09:26:25;;;;;;;29.58;20.77;;;22.10;99.90;;;;;;5018674;28;20062;-81
2021/09/02 09:28:52;;;;;;;23.30;19.30;;;21.90;99.90;;;;;;5017137;28;20133;-81
2021/09/02 09:31:27;;;;;;;28.23;19.20;;;22.00;99.90;;;;;;5015915;28;20129;-82
2021/09/02 09:33:55;;;;;;;25.73;18.70;;;22.30;99.90;;;;;;5016940;28;20053;-82
2021/09/02 09:36:24;;;;;;;25.08;18.85;;;22.40;99.90;;;;;;5016006;28;20092;-82
2021/09/02 09:39:07;;;;;;;25.88;18.75;;;22.20;99.90;;;;;;5019027;28;20050;-83
2021/09/02 09:41:36;;;;;;;25.38;18.85;;;22.00;99.90;;;;;;5019477;28;20085;-83
2021/09/02 09:44:24;;;;;;;30.50;18.63;;;21.60;99.90;;;;;;5020342;28;20140;-82
2021/09/02 09:47:17;;;;;;;24.83;17.92;;;21.40;99.90;;;;;;5019684;28;20129;-81
2021/09/02 09:49:47;;;;;;;26.20;16.83;;;21.00;99.90;;;;;;5006216;28;20057;-82
2021/09/02 09:52:37;;;;;;;22.42;16.63;;;20.90;99.90;;;;;;5019558;28;20136;-83
2021/09/02 09:55:08;;;;;;;24.67;17.95;;;20.70;99.90;;;;;;5020356;28;20105;-83
2021/09/02 09:57:37;;;;;;;28.33;18.67;;;20.70;99.90;;;;;;5021367;28;20088;-83
2021/09/02 10:00:07;;;;;;;29.45;18.00;;;20.50;99.90;;;;;;5020996;28;20060;-81
2021/09/02 10:02:36;;;;;;;25.77;18.33;;;20.50;99.90;;;;;;5021566;28;20144;-83
2021/09/02 10:05:05;;;;;;;24.13;17.15;;;20.70;99.90;;;;;;5019112;28;20109;-83
2021/09/02 10:07:34;;;;;;;25.60;18.00;;;20.90;99.90;;;;;;5020303;28;20050;-84
2021/09/02 10:10:01;;;;;;;25.10;16.85;;;21.20;99.90;;;;;;5020818;28;20050;-83
2021/09/02 10:12:34;;;;;;;25.10;17.73;;;21.30;99.90;;;;;;5020093;28;20113;-82
2021/09/02 10:15:04;;;;;;;29.33;18.23;;;21.20;99.90;;;;;;5020207;28;20058;-84
2021/09/02 10:17:34;;;;;;;26.60;18.17;;;21.10;99.90;;;;;;5020522;28;20050;-85
2021/09/02 10:20:02;;;;;;;29.92;17.48;;;20.90;99.90;;;;;;5024356;28;20048;-81
2021/09/02 10:22:30;;;;;;;23.15;17.40;;;20.90;99.90;;;;;;5021604;28;20179;-82
2021/09/02 10:24:56;;;;;;;27.20;17.50;;;20.80;99.90;;;;;;5018873;28;20096;-82
2021/09/02 10:27:38;;;;;;;21.42;15.90;;;20.80;99.90;;;;;;5020482;28;20113;-84
2021/09/02 10:30:25;;;;;;;21.73;15.77;;;20.80;99.90;;;;;;5020234;28;20049;-83
2021/09/02 10:32:53;;;;;;;19.02;13.50;;;20.90;99.90;;;;;;5020032;28;20081;-84
2021/09/02 10:35:37;;;;;;;17.85;12.07;;;20.80;99.90;;;;;;5018066;28;20046;-85
2021/09/02 10:38:07;;;;;;;20.08;12.52;;;20.80;99.90;;;;;;5020482;28;20105;-83
2021/09/02 10:40:45;;;;;;;18.30;12.30;;;20.80;99.90;;;;;;5024309;28;20084;-83
2021/09/02 10:43:13;;;;;;;15.65;12.10;;;20.90;99.90;;;;;;5021273;28;20050;-83
2021/09/02 10:45:42;;;;;;;19.88;12.90;;;20.90;99.90;;;;;;5021437;28;20066;-83
2021/09/02 10:48:16;;;;;;;16.20;12.27;;;20.80;99.90;;;;;;5021031;28;20050;-84
2021/09/02 10:50:44;;;;;;;15.43;11.40;;;20.90;99.90;;;;;;5020053;28;20123;-85
2021/09/02 10:53:13;;;;;;;19.17;12.35;;;21.10;99.90;;;;;;5019896;28;20510;-84
2021/09/02 10:55:41;;;;;;;15.75;12.60;;;21.20;99.90;;;;;;5019263;28;20046;-85
2021/09/02 10:58:12;;;;;;;17.20;12.13;;;21.30;99.90;;;;;;5019283;28;20124;-84
2021/09/02 11:00:41;;;;;;;15.07;11.95;;;21.40;99.90;;;;;;5018417;28;20061;-83
2021/09/02 11:03:13;;;;;;;19.25;12.13;;;21.40;99.90;;;;;;5016799;28;20483;-84
2021/09/02 11:05:41;;;;;;;18.92;11.80;;;21.50;99.90;;;;;;5016756;28;20042;-83
2021/09/02 11:08:08;;;;;;;17.90;10.00;;;21.50;99.90;;;;;;5017720;28;20403;-84
2021/09/02 11:10:35;;;;;;;19.13;10.63;;;21.70;99.90;;;;;;5017299;28;20505;-84
2021/09/02 11:13:03;;;;;;;16.05;9.80;;;21.80;99.90;;;;;;5016624;28;20050;-84
2021/09/02 11:15:30;;;;;;;16.80;10.88;;;21.90;99.90;;;;;;5018365;28;20046;-84
2021/09/02 11:18:03;;;;;;;14.98;10.82;;;21.80;99.90;;;;;;5021107;28;20046;-84
2021/09/02 11:20:32;;;;;;;15.70;10.98;;;21.80;99.90;;;;;;5022467;28;20498;-83
2021/09/02 11:23:14;;;;;;;13.40;10.70;;;21.80;99.90;;;;;;5020323;28;20137;-82
2021/09/02 11:25:47;;;;;;;14.77;9.73;;;21.80;99.90;;;;;;5020456;28;20046;-82
2021/09/02 11:28:17;;;;;;;16.45;10.23;;;22.00;99.90;;;;;;5020927;28;20117;-82
2021/09/02 11:30:45;;;;;;;19.60;11.70;;;22.10;99.90;;;;;;5020157;28;20054;-82
2021/09/02 11:33:15;;;;;;;12.73;10.40;;;22.10;99.90;;;;;;5019594;28;20149;-83
2021/09/02 11:35:42;;;;;;;14.13;10.80;;;22.10;99.90;;;;;;5020449;28;20083;-84
2021/09/02 11:38:15;;;;;;;15.10;10.98;;;22.20;99.90;;;;;;5021304;28;20138;-83
2021/09/02 11:40:44;;;;;;;16.65;10.07;;;22.20;99.90;;;;;;5022657;28;20109;-84
2021/09/02 11:43:17;;;;;;;14.88;10.48;;;22.30;99.90;;;;;;5023007;28;20053;-85
2021/09/02 11:45:51;;;;;;;12.55;10.25;;;22.40;99.90;;;;;;5021584;28;20085;-85
2021/09/02 11:48:21;;;;;;;15.35;10.55;;;22.40;99.90;;;;;;5021574;28;20088;-85
2021/09/02 11:50:58;;;;;;;12.32;9.75;;;22.50;99.90;;;;;;5024288;28;20050;-85
2021/09/02 11:53:28;;;;;;;16.95;9.88;;;22.50;99.90;;;;;;5023500;28;20205;-85
2021/09/02 11:55:55;;;;;;;13.75;11.10;;;22.50;99.90;;;;;;5025935;28;20060;-84
2021/09/02 11:58:39;;;;;;;15.52;9.55;;;22.40;99.90;;;;;;5025875;28;20490;-83
2021/09/02 12:01:06;;;;;;;13.60;10.05;;;22.70;99.90;;;;;;5024001;28;20046;-85
2021/09/02 12:03:35;;;;;;;16.92;9.52;;;22.60;99.90;;;;;;5032859;23;20073;-79
2021/09/02 12:06:02;;;;;;;13.95;10.30;;;22.70;99.90;;;;;;5006900;28;20042;-79
2021/09/02 12:08:29;;;;;;;13.27;9.57;;;22.70;99.90;;;;;;5014948;28;20132;-79
2021/09/02 12:10:57;;;;;;;11.80;8.52;;;22.80;99.90;;;;;;5015416;28;20057;-79
2021/09/02 12:13:27;;;;;;;11.65;9.50;;;22.90;99.90;;;;;;5015510;28;20478;-80
2021/09/02 12:16:05;;;;;;;10.55;8.82;;;23.00;99.90;;;;;;5015113;28;20157;-79
2021/09/02 12:18:34;;;;;;;13.45;9.15;;;23.00;99.90;;;;;;5014812;28;20133;-79
2021/09/02 12:21:13;;;;;;;11.35;8.65;;;23.00;99.90;;;;;;5015184;28;20133;-77
2021/09/02 12:23:47;;;;;;;13.45;9.10;;;23.10;99.90;;;;;;5014607;28;20046;-81
2021/09/02 12:26:15;;;;;;;10.70;9.13;;;23.20;99.90;;;;;;5015514;28;20129;-79
2021/09/02 12:28:44;;;;;;;11.93;9.40;;;23.20;99.90;;;;;;5017554;28;20109;-79
2021/09/02 12:31:19;;;;;;;11.98;8.77;;;23.20;99.90;;;;;;5013952;28;20525;-79
2021/09/02 12:34:24;;;;;;;11.60;8.77;;;23.10;99.90;;;;;;5014840;28;20066;-78
2021/09/02 12:37:02;;;;;;;9.77;8.15;;;23.20;99.90;;;;;;4915432;29;20213;-80
2021/09/02 12:39:30;;;;;;;9.80;8.30;;;23.30;99.90;;;;;;5003738;28;20054;-80
2021/09/02 12:41:59;;;;;;;13.77;9.05;;;23.40;99.90;;;;;;5015218;28;20053;-80